ジョージタウン の空港の天気 - METARとTAF

オーウェン ロバーツ国際空港 ( MWCR / GCM ) - ケイマン諸島 ジョージタウン (グランドケイマン)
飛行場実況気象(Metar)
観測時間11/21 07:00 EST (11/21 12:00 UTC)
風向・風速東北東 5m/s
視程10km以上
天気現象
少しの雲 雲底高度 550m
全天の8割程度の雲 雲底高度 910m
気温26℃
湿度70%
気圧1016hPa
METARMWCR 211200Z 06010KT 9999 FEW018 BKN030 26/20 Q1016
過去の天気等 Google飛行場航空写真 Wunderground天気予報

過去48時間のMETAR

飛行場予報(TAF)
発表時間: 11/20 18:00 EST (11/20 23:00 UTC)
予報対象時間: 20日19時 EST ~ 21日19時 EST
風向・風速東北東 9m/s
視程10km以上
少しの雲 雲底高度 610m
全天の4割程度の雲 雲底高度 910m
TAF MWCR 202300Z 2100/2124 07018KT 9999 FEW020 SCT030